Time;durP1;ratioP1;P1;durP2;ratioP2;P2;SDS_P1;SDS_P2;PMS_P1;PMS_P2;Temp;Humidity;BMP_temperature;BMP_pressure;BME280_temperature;BME280_humidity;BME280_pressure;Samples;Min_cycle;Max_cycle;Signal;HPM_P1;HPM_P2
2021/07/04 00:00:16;;;;;;;;;;;;;;;25.41;61.40;100065.52;1702320;82;21143;-62
2021/07/04 00:02:44;;;;;;;;;;;;;;;25.45;61.43;100058.05;1704091;83;20170;-63
2021/07/04 00:05:12;;;;;;;;;;;;;;;25.49;61.42;100053.92;1694926;83;21023;-62
2021/07/04 00:07:41;;;;;;;;;;;;;;;25.51;61.40;100054.34;1684449;82;20131;-63
2021/07/04 00:10:07;;;;;;;;;;;;;;;25.55;61.41;100055.25;1723874;81;20111;-62
2021/07/04 00:12:32;;;;;;;;;;;;;;;25.56;61.40;100053.27;1723773;82;21055;-62
2021/07/04 00:14:58;;;;;;;;;;;;;;;25.57;61.34;100052.92;1725313;82;20709;-61
2021/07/04 00:17:24;;;;;;;;;;;;;;;25.58;61.31;100045.37;1726901;82;20127;-62
2021/07/04 00:19:50;;;;;;;;;;;;;;;25.57;61.26;100047.34;1727119;82;20245;-62
2021/07/04 00:22:16;;;;;;;;;;;;;;;25.57;61.24;100048.73;1725191;82;20872;-62
2021/07/04 00:24:42;;;;;;;;;;;;;;;25.55;61.20;100040.52;1720062;82;21868;-62
2021/07/04 00:27:08;;;;;;;;;;;;;;;25.54;61.17;100045.30;1704505;83;20211;-62
2021/07/04 00:29:34;;;;;;;;;;;;;;;25.52;61.17;100049.59;1705417;82;20159;-62
2021/07/04 00:32:00;;;;;;;;;;;;;;;25.50;61.17;100047.77;1713483;82;20149;-62
2021/07/04 00:34:26;;;;;;;;;;;;;;;25.47;61.16;100052.89;1712383;83;20561;-62
2021/07/04 00:36:52;;;;;;;;;;;;;;;25.44;61.17;100056.42;1710579;82;23370;-63
2021/07/04 00:39:17;;;;;;;;;;;;;;;25.43;61.18;100056.78;1707109;82;20194;-62
2021/07/04 00:41:43;;;;;;;;;;;;;;;25.40;61.19;100053.34;1708162;82;20203;-61
2021/07/04 00:44:09;;;;;;;;;;;;;;;25.36;61.21;100058.85;1704480;83;20188;-61
2021/07/04 00:46:35;;;;;;;;;;;;;;;25.34;61.22;100058.40;1711830;83;20134;-62
2021/07/04 00:49:01;;;;;;;;;;;;;;;25.33;61.26;100056.78;1714471;82;21074;-61
2021/07/04 00:51:27;;;;;;;;;;;;;;;25.31;61.27;100054.97;1708573;83;20456;-62
2021/07/04 00:53:53;;;;;;;;;;;;;;;25.28;61.30;100047.94;1713052;83;20210;-61
2021/07/04 00:56:19;;;;;;;;;;;;;;;25.26;61.33;100046.91;1714167;83;20160;-62
2021/07/04 00:58:45;;;;;;;;;;;;;;;25.24;61.37;100047.88;1720052;82;20183;-63
2021/07/04 01:01:11;;;;;;;;;;;;;;;25.23;61.37;100051.02;1721642;83;21226;-62
2021/07/04 01:03:37;;;;;;;;;;;;;;;25.20;61.40;100056.74;1720510;82;20251;-62
2021/07/04 01:06:03;;;;;;;;;;;;;;;25.19;61.42;100050.14;1716477;82;20125;-62
2021/07/04 01:08:29;;;;;;;;;;;;;;;25.18;61.45;100047.13;1701936;83;22122;-62
2021/07/04 01:10:55;;;;;;;;;;;;;;;25.15;61.48;100050.66;1708037;82;20191;-62
2021/07/04 01:13:21;;;;;;;;;;;;;;;25.13;61.48;100051.02;1716541;82;21120;-62
2021/07/04 01:15:47;;;;;;;;;;;;;;;25.12;61.52;100052.17;1716416;83;20281;-62
2021/07/04 01:18:13;;;;;;;;;;;;;;;25.11;61.55;100058.94;1692291;83;20258;-62
2021/07/04 01:20:39;;;;;;;;;;;;;;;25.09;61.57;100058.48;1714411;82;20365;-62
2021/07/04 01:23:11;;;;;;;;;;;;;;;25.09;61.59;100060.45;1718697;82;20135;-62
2021/07/04 01:25:40;;;;;;;;;;;;;;;25.10;61.58;100065.67;1722055;83;21142;-62
2021/07/04 01:28:06;;;;;;;;;;;;;;;25.10;61.61;100062.88;1718488;82;20204;-62
2021/07/04 01:30:33;;;;;;;;;;;;;;;25.12;61.65;100060.52;1722279;82;20278;-62
2021/07/04 01:32:59;;;;;;;;;;;;;;;25.14;61.69;100054.02;1717498;81;20077;-62
2021/07/04 01:35:25;;;;;;;;;;;;;;;25.16;61.74;100053.66;1720493;82;20519;-61
2021/07/04 01:37:51;;;;;;;;;;;;;;;25.19;61.78;100052.92;1727512;82;21130;-61
2021/07/04 01:40:18;;;;;;;;;;;;;;;25.23;61.82;100057.39;1719668;82;20205;-61
2021/07/04 01:42:45;;;;;;;;;;;;;;;25.27;61.84;100052.70;1719695;82;20109;-62
2021/07/04 01:45:13;;;;;;;;;;;;;;;25.31;61.82;100068.89;1719803;82;20147;-62
2021/07/04 01:47:39;;;;;;;;;;;;;;;25.35;61.82;100068.95;1719066;82;20200;-62
2021/07/04 01:50:08;;;;;;;;;;;;;;;25.38;61.82;100075.17;1721904;82;21081;-62
2021/07/04 01:52:35;;;;;;;;;;;;;;;25.39;61.81;100078.99;1719988;82;20592;-62
2021/07/04 01:55:02;;;;;;;;;;;;;;;25.42;61.77;100081.03;1722032;82;20141;-62
2021/07/04 01:57:28;;;;;;;;;;;;;;;25.43;61.70;100081.27;1722040;82;20473;-62
2021/07/04 01:59:56;;;;;;;;;;;;;;;25.44;61.64;100069.54;1716645;82;20875;-62
2021/07/04 02:02:23;;;;;;;;;;;;;;;25.43;61.64;100077.67;1720431;81;20141;-63
2021/07/04 02:04:49;;;;;;;;;;;;;;;25.43;61.58;100077.67;1722334;82;20140;-61
2021/07/04 02:07:15;;;;;;;;;;;;;;;25.40;61.54;100075.05;1724678;82;20195;-61
2021/07/04 02:09:45;;;;;;;;;;;;;;;25.40;61.49;100082.59;1726420;82;20132;-62
2021/07/04 02:12:12;;;;;;;;;;;;;;;25.37;61.50;100082.75;1717825;81;20169;-62
2021/07/04 02:14:38;;;;;;;;;;;;;;;25.36;61.48;100091.45;1723065;82;21171;-62
2021/07/04 02:17:04;;;;;;;;;;;;;;;25.33;61.46;100094.98;1722170;82;20719;-62
2021/07/04 02:19:33;;;;;;;;;;;;;;;25.31;61.47;100090.36;1721841;82;20195;-61
2021/07/04 02:21:59;;;;;;;;;;;;;;;25.28;61.48;100089.70;1724407;82;20464;-62
2021/07/04 02:24:25;;;;;;;;;;;;;;;25.25;61.49;100088.44;1724304;82;20395;-61
2021/07/04 02:26:52;;;;;;;;;;;;;;;25.22;61.51;100090.57;1723225;82;20340;-62
2021/07/04 02:29:18;;;;;;;;;;;;;;;25.21;61.55;100096.50;1721734;82;21552;-62
2021/07/04 02:31:44;;;;;;;;;;;;;;;25.19;61.56;100097.46;1722208;82;20215;-63
2021/07/04 02:34:10;;;;;;;;;;;;;;;25.16;61.56;100094.84;1722228;82;20414;-62
2021/07/04 02:36:36;;;;;;;;;;;;;;;25.14;61.60;100102.73;1718930;82;20801;-62
2021/07/04 02:39:02;;;;;;;;;;;;;;;25.12;61.60;100101.50;1716923;82;21009;-63
2021/07/04 02:41:28;;;;;;;;;;;;;;;25.09;61.63;100098.84;1725199;81;20226;-62
2021/07/04 02:43:54;;;;;;;;;;;;;;;25.08;61.65;100105.57;1713474;82;20207;-63
2021/07/04 02:46:20;;;;;;;;;;;;;;;25.06;61.66;100109.32;1716632;82;20245;-62
2021/07/04 02:48:46;;;;;;;;;;;;;;;25.05;61.68;100117.44;1718880;82;20694;-62
2021/07/04 02:51:12;;;;;;;;;;;;;;;25.04;61.72;100117.21;1719111;82;21978;-62
2021/07/04 02:53:38;;;;;;;;;;;;;;;25.03;61.73;100123.97;1724239;82;21616;-62
2021/07/04 02:56:04;;;;;;;;;;;;;;;25.00;61.75;100124.09;1714467;82;20185;-62
2021/07/04 02:58:30;;;;;;;;;;;;;;;24.99;61.76;100125.26;1717175;82;20236;-62
2021/07/04 03:00:55;;;;;;;;;;;;;;;24.99;61.78;100121.70;1715227;82;20235;-62
2021/07/04 03:03:21;;;;;;;;;;;;;;;24.97;61.79;100126.81;1768554;79;21072;-62
2021/07/04 03:05:47;;;;;;;;;;;;;;;24.96;61.81;100116.26;1768897;80;20278;-62
2021/07/04 03:08:13;;;;;;;;;;;;;;;24.95;61.83;100116.64;1767303;79;20701;-62
2021/07/04 03:10:39;;;;;;;;;;;;;;;24.96;61.82;100123.80;1757805;80;22183;-62
2021/07/04 03:13:05;;;;;;;;;;;;;;;24.98;61.83;100127.84;1764023;80;20202;-63
2021/07/04 03:15:31;;;;;;;;;;;;;;;24.99;61.86;100131.44;1762310;79;21207;-62
2021/07/04 03:17:56;;;;;;;;;;;;;;;25.01;61.89;100134.65;1761575;80;20201;-62
2021/07/04 03:20:22;;;;;;;;;;;;;;;25.04;61.95;100132.52;1758405;79;20249;-62
2021/07/04 03:22:48;;;;;;;;;;;;;;;25.07;62.00;100135.99;1766287;80;20177;-62
2021/07/04 03:25:15;;;;;;;;;;;;;;;25.12;62.01;100137.69;1766207;79;20156;-62
2021/07/04 03:27:40;;;;;;;;;;;;;;;25.16;62.04;100134.39;1759087;80;21883;-62
2021/07/04 03:30:12;;;;;;;;;;;;;;;25.20;62.03;100136.09;1769738;80;20142;-63
2021/07/04 03:32:38;;;;;;;;;;;;;;;25.24;62.01;100138.36;1765769;79;20164;-62
2021/07/04 03:35:05;;;;;;;;;;;;;;;25.28;62.00;100138.43;1766056;79;22095;-62
2021/07/04 03:37:31;;;;;;;;;;;;;;;25.31;61.96;100137.11;1756420;80;20200;-62
2021/07/04 03:39:57;;;;;;;;;;;;;;;25.33;61.93;100128.40;1765189;80;21147;-62
2021/07/04 03:42:23;;;;;;;;;;;;;;;25.34;61.87;100134.98;1771673;80;21637;-62
2021/07/04 03:44:49;;;;;;;;;;;;;;;25.35;61.83;100132.42;1767482;80;20283;-62
2021/07/04 03:47:15;;;;;;;;;;;;;;;25.35;61.77;100127.43;1765563;80;20239;-62
2021/07/04 03:49:41;;;;;;;;;;;;;;;25.35;61.72;100128.23;1757809;79;20781;-61
2021/07/04 03:52:07;;;;;;;;;;;;;;;25.35;61.65;100134.39;1764540;80;21105;-62
2021/07/04 03:54:33;;;;;;;;;;;;;;;25.34;61.64;100128.59;1771130;79;20376;-63
2021/07/04 03:56:59;;;;;;;;;;;;;;;25.31;61.60;100123.19;1761687;80;20714;-62
2021/07/04 03:59:25;;;;;;;;;;;;;;;25.30;61.59;100124.34;1755885;80;20702;-62
2021/07/04 04:01:50;;;;;;;;;;;;;;;25.27;61.58;100125.09;1764558;79;20166;-62
2021/07/04 04:04:16;;;;;;;;;;;;;;;25.25;61.57;100124.63;1768537;80;21194;-62
2021/07/04 04:06:42;;;;;;;;;;;;;;;25.23;61.58;100126.19;1770430;80;20161;-62
2021/07/04 04:09:08;;;;;;;;;;;;;;;25.22;61.56;100123.17;1763447;80;20416;-62
2021/07/04 04:11:34;;;;;;;;;;;;;;;25.20;61.57;100124.14;1766172;79;20690;-62
2021/07/04 04:14:00;;;;;;;;;;;;;;;25.17;61.57;100127.05;1763841;80;20201;-62
2021/07/04 04:16:26;;;;;;;;;;;;;;;25.16;61.60;100126.85;1760229;80;21127;-62
2021/07/04 04:18:52;;;;;;;;;;;;;;;25.13;61.59;100128.14;1768095;79;20234;-62
2021/07/04 04:21:18;;;;;;;;;;;;;;;25.12;61.62;100130.73;1760446;80;20264;-62
2021/07/04 04:23:44;;;;;;;;;;;;;;;25.10;61.63;100133.86;1771038;79;20156;-62
2021/07/04 04:26:10;;;;;;;;;;;;;;;25.08;61.64;100129.23;1761581;79;20228;-62
2021/07/04 04:28:35;;;;;;;;;;;;;;;25.07;61.63;100133.79;1765196;79;21199;-62
2021/07/04 04:31:01;;;;;;;;;;;;;;;25.05;61.66;100132.75;1767814;79;20773;-63
2021/07/04 04:33:27;;;;;;;;;;;;;;;25.04;61.68;100133.91;1766935;79;20169;-62
2021/07/04 04:35:53;;;;;;;;;;;;;;;25.04;61.69;100142.27;1776048;79;20265;-62
2021/07/04 04:38:19;;;;;;;;;;;;;;;25.03;61.70;100131.52;1766390;79;20237;-62
2021/07/04 04:40:45;;;;;;;;;;;;;;;25.00;61.72;100132.45;1758805;79;21235;-62
2021/07/04 04:43:11;;;;;;;;;;;;;;;25.00;61.71;100128.27;1735287;81;20181;-62
2021/07/04 04:45:37;;;;;;;;;;;;;;;24.99;61.72;100128.05;1739458;81;20243;-62
2021/07/04 04:48:03;;;;;;;;;;;;;;;24.99;61.73;100132.83;1740958;80;20752;-62
2021/07/04 04:50:29;;;;;;;;;;;;;;;24.98;61.75;100132.60;1740992;81;20403;-63
2021/07/04 04:52:55;;;;;;;;;;;;;;;24.97;61.76;100132.37;1737068;80;21223;-62
2021/07/04 04:55:21;;;;;;;;;;;;;;;24.97;61.79;100130.98;1728861;81;20300;-63
2021/07/04 04:57:47;;;;;;;;;;;;;;;24.96;61.79;100132.14;1732040;81;20183;-62
2021/07/04 05:00:13;;;;;;;;;;;;;;;24.96;61.78;100141.30;1728579;81;20167;-62
2021/07/04 05:02:39;;;;;;;;;;;;;;;24.98;61.75;100138.98;1733089;80;20162;-62
2021/07/04 05:05:06;;;;;;;;;;;;;;;25.00;61.77;100139.41;1729983;81;21091;-62
2021/07/04 05:07:33;;;;;;;;;;;;;;;25.03;61.79;100135.69;1776218;79;20391;-62
2021/07/04 05:09:59;;;;;;;;;;;;;;;25.06;61.86;100137.16;1769207;79;20134;-61
2021/07/04 05:12:25;;;;;;;;;;;;;;;25.09;61.88;100135.02;1767743;79;20221;-62
2021/07/04 05:14:52;;;;;;;;;;;;;;;25.14;61.91;100140.89;1769796;79;20398;-62
2021/07/04 05:17:19;;;;;;;;;;;;;;;25.17;61.92;100135.40;1768714;79;21119;-62
2021/07/04 05:19:45;;;;;;;;;;;;;;;25.23;61.92;100133.95;1761695;80;20172;-62
2021/07/04 05:22:12;;;;;;;;;;;;;;;25.27;61.90;100139.02;1769070;79;21480;-62
2021/07/04 05:24:38;;;;;;;;;;;;;;;25.32;61.88;100135.94;1755992;79;22158;-61
2021/07/04 05:27:04;;;;;;;;;;;;;;;25.35;61.87;100131.02;1773187;79;20271;-62
2021/07/04 05:29:30;;;;;;;;;;;;;;;25.39;61.82;100132.48;1773563;80;21169;-62
2021/07/04 05:31:56;;;;;;;;;;;;;;;25.41;61.80;100135.73;1772449;79;20202;-61
2021/07/04 05:34:22;;;;;;;;;;;;;;;25.41;61.74;100134.34;1774888;79;20786;-62
2021/07/04 05:36:49;;;;;;;;;;;;;;;25.41;61.68;100137.92;1774141;80;21096;-62
2021/07/04 05:39:15;;;;;;;;;;;;;;;25.41;61.64;100137.92;1772053;79;20404;-63
2021/07/04 05:41:41;;;;;;;;;;;;;;;25.41;61.60;100136.53;1773966;79;21994;-62
2021/07/04 05:44:07;;;;;;;;;;;;;;;25.39;61.53;100131.91;1767610;79;20225;-62
2021/07/04 05:46:34;;;;;;;;;;;;;;;25.38;61.51;100139.22;1735601;81;20139;-62
2021/07/04 05:49:00;;;;;;;;;;;;;;;25.37;61.50;100136.23;1749423;81;20439;-62
2021/07/04 05:51:26;;;;;;;;;;;;;;;25.35;61.50;100137.17;1719758;82;20097;-62
2021/07/04 05:53:52;;;;;;;;;;;;;;;25.32;61.47;100129.56;1740265;82;23312;-62
2021/07/04 05:56:18;;;;;;;;;;;;;;;25.30;61.48;100129.11;1710085;82;21598;-62
2021/07/04 05:58:44;;;;;;;;;;;;;;;25.27;61.46;100132.05;1712117;82;20165;-62
2021/07/04 06:01:10;;;;;;;;;;;;;;;25.25;61.46;100132.98;1768962;79;20169;-62
2021/07/04 06:03:36;;;;;;;;;;;;;;;25.23;61.50;100133.14;1762884;81;20198;-62
2021/07/04 06:06:02;;;;;;;;;;;;;;;25.21;61.49;100132.69;1756770;80;21816;-62
2021/07/04 06:08:28;;;;;;;;;;;;;;;25.18;61.52;100129.25;1730098;82;20084;-62
2021/07/04 06:10:54;;;;;;;;;;;;;;;25.16;61.53;100131.02;1735598;81;20189;-62
2021/07/04 06:13:20;;;;;;;;;;;;;;;25.13;61.55;100132.31;1735183;81;20240;-62
2021/07/04 06:15:46;;;;;;;;;;;;;;;25.12;61.56;100130.73;1739730;82;20242;-62
2021/07/04 06:18:12;;;;;;;;;;;;;;;25.10;61.59;100126.09;1732804;81;21107;-62
2021/07/04 06:20:37;;;;;;;;;;;;;;;25.09;61.59;100123.89;1734290;82;20285;-62
2021/07/04 06:23:03;;;;;;;;;;;;;;;25.07;61.61;100122.66;1721759;82;21081;-62
2021/07/04 06:25:29;;;;;;;;;;;;;;;25.05;61.63;100123.01;1768706;79;20779;-62
2021/07/04 06:27:55;;;;;;;;;;;;;;;25.04;61.67;100124.78;1760484;80;20203;-62
2021/07/04 06:30:21;;;;;;;;;;;;;;;25.02;61.67;100123.75;1770013;79;21132;-62
2021/07/04 06:32:47;;;;;;;;;;;;;;;25.01;61.69;100128.50;1775110;79;20234;-62
2021/07/04 06:35:13;;;;;;;;;;;;;;;25.01;61.70;100133.26;1768434;79;20357;-62
2021/07/04 06:37:40;;;;;;;;;;;;;;;24.99;61.73;100130.05;1731128;81;22097;-64
2021/07/04 06:40:07;;;;;;;;;;;;;;;24.98;61.74;100125.64;1745287;81;20421;-62
2021/07/04 06:42:33;;;;;;;;;;;;;;;24.97;61.76;100130.98;1707819;82;21079;-62
2021/07/04 06:44:59;;;;;;;;;;;;;;;24.96;61.76;100125.19;1710608;82;20171;-62
2021/07/04 06:47:25;;;;;;;;;;;;;;;24.95;61.79;100114.64;1725828;81;20490;-61
2021/07/04 06:49:51;;;;;;;;;;;;;;;24.94;61.77;100120.00;1795337;79;20161;-62
2021/07/04 06:52:17;;;;;;;;;;;;;;;24.93;61.81;100113.40;1785223;79;20346;-62
2021/07/04 06:54:43;;;;;;;;;;;;;;;24.95;61.80;100108.29;1785752;79;21022;-61
2021/07/04 06:57:31;;;;;;;;;;;;;;;24.97;61.82;100110.11;1766361;79;20209;-61
2021/07/04 06:59:59;;;;;;;;;;;;;;;24.99;61.84;100117.52;1762734;81;20215;-62
2021/07/04 07:02:25;;;;;;;;;;;;;;;25.02;61.90;100114.00;1764614;80;20837;-63
2021/07/04 07:04:51;;;;;;;;;;;;;;;25.05;61.94;100111.06;1745473;80;20279;-62
2021/07/04 07:07:20;;;;;;;;;;;;;;;25.07;61.98;100115.12;1739352;81;21115;-62
2021/07/04 07:09:47;;;;;;;;;;;;;;;25.12;62.00;100112.02;1727533;82;21641;-63
2021/07/04 07:12:13;;;;;;;;;;;;;;;25.16;62.00;100100.41;1775649;80;20192;-62
2021/07/04 07:14:38;;;;;;;;;;;;;;;25.22;61.96;100105.08;1772734;79;20847;-62
2021/07/04 07:17:05;;;;;;;;;;;;;;;25.23;61.94;100100.55;1769878;80;20538;-61
2021/07/04 07:19:31;;;;;;;;;;;;;;;25.26;61.88;100101.20;1775364;79;21108;-63
2021/07/04 07:21:57;;;;;;;;;;;;;;;25.28;61.81;100105.83;1778931;79;20173;-61
2021/07/04 07:24:23;;;;;;;;;;;;;;;25.31;61.73;100101.49;1789442;79;20169;-61
2021/07/04 07:26:49;;;;;;;;;;;;;;;25.31;61.62;100096.73;1776203;79;20741;-61
2021/07/04 07:29:15;;;;;;;;;;;;;;;25.32;61.53;100091.98;1773851;80;20244;-61
2021/07/04 07:31:41;;;;;;;;;;;;;;;25.31;61.40;100091.16;1757359;80;23239;-61
2021/07/04 07:34:07;;;;;;;;;;;;;;;25.30;61.32;100095.11;1769406;80;20542;-63
2021/07/04 07:36:33;;;;;;;;;;;;;;;25.28;61.21;100084.14;1766306;80;20248;-61
2021/07/04 07:38:59;;;;;;;;;;;;;;;25.26;61.13;100089.25;1768129;80;20165;-61
2021/07/04 07:41:25;;;;;;;;;;;;;;;25.25;61.04;100089.05;1760997;79;20745;-61
2021/07/04 07:43:50;;;;;;;;;;;;;;;25.23;60.96;100086.62;1767066;79;21941;-61
2021/07/04 07:46:16;;;;;;;;;;;;;;;25.21;60.88;100082.58;1765433;80;20177;-61
2021/07/04 07:48:43;;;;;;;;;;;;;;;25.18;60.82;100082.73;1743035;80;20206;-62
2021/07/04 07:51:09;;;;;;;;;;;;;;;25.17;60.76;100081.70;1760489;79;20512;-62
2021/07/04 07:53:34;;;;;;;;;;;;;;;25.14;60.71;100081.86;1706970;82;20187;-62
2021/07/04 07:56:00;;;;;;;;;;;;;;;25.13;60.66;100084.99;1715784;82;21122;-62
2021/07/04 07:58:26;;;;;;;;;;;;;;;25.11;60.62;100078.42;1744569;81;20274;-62
2021/07/04 08:00:52;;;;;;;;;;;;;;;25.09;60.57;100089.10;1762651;80;20194;-62
2021/07/04 08:03:18;;;;;;;;;;;;;;;25.07;60.56;100082.30;1760182;80;20185;-62
2021/07/04 08:05:44;;;;;;;;;;;;;;;25.06;60.54;100082.07;1763810;80;20738;-63
2021/07/04 08:08:10;;;;;;;;;;;;;;;25.05;60.50;100080.45;1767613;80;21939;-62
2021/07/04 08:10:36;;;;;;;;;;;;;;;25.03;60.46;100077.24;1758566;81;20172;-62
2021/07/04 08:13:03;;;;;;;;;;;;;;;25.00;60.42;100090.70;1750230;80;20250;-62
2021/07/04 08:15:29;;;;;;;;;;;;;;;24.99;60.38;100083.52;1765772;81;20509;-62
2021/07/04 08:17:55;;;;;;;;;;;;;;;24.99;60.33;100081.34;1762203;80;20574;-62
2021/07/04 08:20:21;;;;;;;;;;;;;;;24.98;60.31;100078.34;1766999;80;21833;-62
2021/07/04 08:22:47;;;;;;;;;;;;;;;24.97;60.27;100076.13;1764174;80;20180;-61
2021/07/04 08:25:14;;;;;;;;;;;;;;;24.97;60.23;100080.89;1765236;79;20229;-62
2021/07/04 08:27:40;;;;;;;;;;;;;;;24.95;60.21;100078.46;1752141;80;20200;-63
2021/07/04 08:30:08;;;;;;;;;;;;;;;24.96;60.18;100078.69;1760267;79;20216;-63
2021/07/04 08:32:34;;;;;;;;;;;;;;;24.95;60.17;100084.02;1765200;79;21173;-63
2021/07/04 08:35:00;;;;;;;;;;;;;;;24.96;60.13;100087.62;1775132;79;21606;-62
2021/07/04 08:37:26;;;;;;;;;;;;;;;24.94;60.07;100079.66;1771695;79;20182;-61
2021/07/04 08:39:52;;;;;;;;;;;;;;;24.94;60.07;100081.63;1778250;79;20378;-63
2021/07/04 08:42:18;;;;;;;;;;;;;;;24.94;60.03;100073.28;1738638;81;20226;-62
2021/07/04 08:44:49;;;;;;;;;;;;;;;24.94;60.00;100071.30;1719059;82;21126;-62
2021/07/04 08:47:18;;;;;;;;;;;;;;;24.93;59.98;100071.08;1727084;82;20194;-62
2021/07/04 08:49:45;;;;;;;;;;;;;;;24.92;59.93;100077.80;1715242;82;20216;-61
2021/07/04 08:52:11;;;;;;;;;;;;;;;24.92;59.90;100073.63;1721003;82;20414;-61
2021/07/04 08:54:38;;;;;;;;;;;;;;;24.92;59.89;100065.87;1717409;82;20209;-60
2021/07/04 08:57:08;;;;;;;;;;;;;;;24.91;59.85;100067.84;1716615;82;23363;-62
2021/07/04 08:59:32;;;;;;;;;;;;;;;24.92;59.81;100075.02;1714344;82;21701;-62
2021/07/04 09:01:58;;;;;;;;;;;;;;;24.88;59.77;100058.03;1718642;82;20212;-62
2021/07/04 09:04:26;;;;;;;;;;;;;;;24.90;59.71;100053.73;1716973;82;22096;-61
2021/07/04 09:06:55;;;;;;;;;;;;;;;24.90;59.67;100062.08;1713341;82;20238;-62
2021/07/04 09:09:26;;;;;;;;;;;;;;;24.90;59.61;100056.51;1706944;83;21350;-60
2021/07/04 09:11:55;;;;;;;;;;;;;;;24.90;59.56;100063.47;1703227;82;20436;-61
2021/07/04 09:14:39;;;;;;;;;;;;;;;24.90;59.52;100053.73;1709797;83;20202;-62
2021/07/04 09:17:09;;;;;;;;;;;;;;;24.90;59.44;100060.69;1718296;82;20320;-62
2021/07/04 09:19:35;;;;;;;;;;;;;;;24.91;59.38;100057.29;1722165;81;20211;-62
2021/07/04 09:22:04;;;;;;;;;;;;;;;24.90;59.31;100054.31;1756412;79;21177;-62
2021/07/04 09:24:38;;;;;;;;;;;;;;;24.92;59.23;100054.73;1772843;80;20327;-62
2021/07/04 09:27:04;;;;;;;;;;;;;;;24.92;59.16;100053.34;1767436;79;20216;-62
2021/07/04 09:29:51;;;;;;;;;;;;;;;24.93;59.09;100052.18;1771021;80;20186;-63
2021/07/04 09:32:25;;;;;;;;;;;;;;;24.92;59.03;100057.52;1747393;80;20168;-62
2021/07/04 09:35:03;;;;;;;;;;;;;;;24.92;58.97;100049.98;1745323;80;21955;-62
2021/07/04 09:37:41;;;;;;;;;;;;;;;24.93;58.91;100048.01;1749548;81;20317;-62
2021/07/04 09:40:17;;;;;;;;;;;;;;;24.96;58.84;100053.64;1720719;82;20214;-62
2021/07/04 09:43:00;;;;;;;;;;;;;;;24.98;58.79;100046.33;1710837;82;20196;-62
2021/07/04 09:45:28;;;;;;;;;;;;;;;24.98;58.76;100043.55;1713440;82;20187;-62
2021/07/04 09:47:55;;;;;;;;;;;;;;;24.99;58.69;100045.95;1723782;82;21910;-62
2021/07/04 09:50:21;;;;;;;;;;;;;;;25.01;58.63;100036.66;1725347;82;20233;-62
2021/07/04 09:52:59;;;;;;;;;;;;;;;25.02;58.60;100031.91;1718639;82;20184;-63
2021/07/04 09:55:25;;;;;;;;;;;;;;;25.02;58.56;100033.30;1709476;82;20274;-63
2021/07/04 09:57:54;;;;;;;;;;;;;;;25.03;58.52;100028.54;1711163;82;20179;-63
2021/07/04 10:00:21;;;;;;;;;;;;;;;25.04;58.49;100025.38;1723886;82;21112;-62
2021/07/04 10:03:11;;;;;;;;;;;;;;;25.06;58.45;100022.23;1724015;82;20465;-62
2021/07/04 10:05:39;;;;;;;;;;;;;;;25.07;58.41;100018.28;1715801;82;20202;-61
2021/07/04 10:08:23;;;;;;;;;;;;;;;25.08;58.35;100023.46;1718734;82;20888;-61
2021/07/04 10:10:50;;;;;;;;;;;;;;;25.09;58.33;100021.48;1663026;84;20274;-62
2021/07/04 10:13:16;;;;;;;;;;;;;;;25.09;58.28;100013.95;1703899;82;21080;-61
2021/07/04 10:15:42;;;;;;;;;;;;;;;25.12;58.25;100015.21;1757185;81;20187;-63
2021/07/04 10:18:10;;;;;;;;;;;;;;;25.12;58.24;100016.60;1755681;81;20526;-62
2021/07/04 10:20:41;;;;;;;;;;;;;;;25.13;58.19;100021.78;1737440;82;20139;-62
2021/07/04 10:23:12;;;;;;;;;;;;;;;25.16;58.18;100014.70;1735383;81;20221;-62
2021/07/04 10:25:38;;;;;;;;;;;;;;;25.15;58.15;100012.49;1739580;82;21062;-62
2021/07/04 10:28:06;;;;;;;;;;;;;;;25.16;58.10;100021.07;1736166;82;21128;-63
2021/07/04 10:30:32;;;;;;;;;;;;;;;25.18;58.02;100025.67;1728812;81;20187;-65
2021/07/04 10:33:14;;;;;;;;;;;;;;;25.20;57.95;100028.09;1723192;82;20496;-63
2021/07/04 10:35:57;;;;;;;;;;;;;;;25.21;57.89;100020.75;1719396;82;20234;-63
2021/07/04 10:38:24;;;;;;;;;;;;;;;25.23;57.84;100019.81;1767349;79;23177;-62
2021/07/04 10:40:50;;;;;;;;;;;;;;;25.26;57.77;100016.86;1767658;79;20236;-62
2021/07/04 10:43:45;;;;;;;;;;;;;;;25.27;57.73;100019.29;1758219;79;20735;-62
2021/07/04 10:46:11;;;;;;;;;;;;;;;25.27;57.67;100022.66;1757168;79;22070;-62
2021/07/04 10:48:41;;;;;;;;;;;;;;;25.28;57.63;100018.70;1749448;80;20263;-63
2021/07/04 10:51:13;;;;;;;;;;;;;;;25.27;57.60;100013.72;1760978;79;21289;-62
2021/07/04 10:53:47;;;;;;;;;;;;;;;25.28;57.55;100013.14;1773991;79;20205;-63
2021/07/04 10:56:37;;;;;;;;;;;;;;;25.28;57.53;100017.31;1771050;79;20189;-63
2021/07/04 10:59:09;;;;;;;;;;;;;;;25.29;57.48;100015.53;1765140;79;20458;-63
2021/07/04 11:01:58;;;;;;;;;;;;;;;25.30;57.42;100014.37;1762734;79;20443;-62
2021/07/04 11:04:38;;;;;;;;;;;;;;;25.31;57.37;100017.96;1760615;79;21215;-62
2021/07/04 11:07:04;;;;;;;;;;;;;;;25.31;57.33;100017.38;1757544;79;20162;-62
2021/07/04 11:09:56;;;;;;;;;;;;;;;25.31;57.27;100008.22;1732109;81;20307;-62
2021/07/04 11:12:30;;;;;;;;;;;;;;;25.32;57.24;100010.64;1734455;81;20807;-63
2021/07/04 11:15:15;;;;;;;;;;;;;;;25.33;57.19;100011.45;1728358;81;20198;-62
2021/07/04 11:18:01;;;;;;;;;;;;;;;25.34;57.17;100006.89;1733401;81;21133;-61
2021/07/04 11:20:32;;;;;;;;;;;;;;;25.36;57.16;100003.16;1725233;82;20401;-60
2021/07/04 11:23:00;;;;;;;;;;;;;;;25.40;57.11;100002.64;1694828;83;20421;-62
2021/07/04 11:25:41;;;;;;;;;;;;;;;25.44;57.12;100002.70;1766044;79;20227;-60
2021/07/04 11:28:20;;;;;;;;;;;;;;;25.47;57.11;100008.33;1760634;79;20240;-60
2021/07/04 11:30:50;;;;;;;;;;;;;;;25.52;57.10;100010.59;1761365;80;21271;-60
2021/07/04 11:33:28;;;;;;;;;;;;;;;25.57;57.09;100011.72;1761124;80;20377;-60
2021/07/04 11:35:57;;;;;;;;;;;;;;;25.60;57.12;100008.19;1756714;80;20324;-60
2021/07/04 11:38:24;;;;;;;;;;;;;;;25.64;57.14;100006.27;1725853;82;20555;-60
2021/07/04 11:40:51;;;;;;;;;;;;;;;25.68;57.18;100012.12;1721421;81;20492;-60
2021/07/04 11:43:18;;;;;;;;;;;;;;;25.71;57.18;100010.59;1757311;80;21147;-60
2021/07/04 11:45:59;;;;;;;;;;;;;;;25.72;57.21;100010.20;1724126;80;20134;-61
2021/07/04 11:48:51;;;;;;;;;;;;;;;25.75;57.22;100011.45;1755001;80;20186;-60
2021/07/04 11:51:30;;;;;;;;;;;;;;;25.74;57.26;100005.08;1755908;80;20173;-61
2021/07/04 11:53:59;;;;;;;;;;;;;;;25.74;57.26;100004.27;1728548;80;20447;-60
2021/07/04 11:56:25;;;;;;;;;;;;;;;25.74;57.30;100004.27;1727990;80;21390;-60
2021/07/04 11:58:51;;;;;;;;;;;;;;;25.75;57.29;100000.31;1761994;79;20280;-61
2021/07/04 12:01:19;;;;;;;;;;;;;;;25.76;57.28;99998.52;1753931;79;20390;-61
2021/07/04 12:03:54;;;;;;;;;;;;;;;25.77;57.31;100007.11;1756314;80;20471;-60
2021/07/04 12:06:22;;;;;;;;;;;;;;;25.79;57.30;100002.56;1761447;80;20498;-61
2021/07/04 12:08:53;;;;;;;;;;;;;;;25.81;57.30;100005.77;1758702;79;21307;-62
2021/07/04 12:11:19;;;;;;;;;;;;;;;25.82;57.31;99998.44;1754312;80;20323;-60
2021/07/04 12:13:46;;;;;;;;;;;;;;;25.86;57.34;100002.68;1755822;80;20223;-62
2021/07/04 12:16:12;;;;;;;;;;;;;;;25.90;57.31;100000.75;1760094;79;20470;-60
2021/07/04 12:18:39;;;;;;;;;;;;;;;25.93;57.32;99997.22;1758686;80;20173;-60
2021/07/04 12:21:05;;;;;;;;;;;;;;;25.95;57.32;99994.88;1759930;80;21069;-60
2021/07/04 12:23:32;;;;;;;;;;;;;;;25.98;57.31;99989.94;1760362;79;20528;-61
2021/07/04 12:26:07;;;;;;;;;;;;;;;26.00;57.31;99993.17;1750884;80;20797;-59
2021/07/04 12:28:33;;;;;;;;;;;;;;;26.03;57.29;99987.42;1763871;80;20457;-58
2021/07/04 12:30:59;;;;;;;;;;;;;;;26.04;57.28;99987.64;1758825;80;20191;-58
2021/07/04 12:33:27;;;;;;;;;;;;;;;26.07;57.29;99991.88;1751417;80;21845;-59
2021/07/04 12:36:01;;;;;;;;;;;;;;;26.09;57.30;99989.53;1750747;80;20189;-58
2021/07/04 12:38:33;;;;;;;;;;;;;;;26.11;57.31;99984.95;1745891;80;20481;-58
2021/07/04 12:41:11;;;;;;;;;;;;;;;26.13;57.32;99975.64;1749351;80;20647;-58